Time;durP1;ratioP1;P1;durP2;ratioP2;P2;SDS_P1;SDS_P2;PMS_P1;PMS_P2;Temp;Humidity;BMP_temperature;BMP_pressure;BME280_temperature;BME280_humidity;BME280_pressure;Samples;Min_cycle;Max_cycle;Signal;HPM_P1;HPM_P2
2021/08/22 00:00:03;;;;;;;8.87;7.97;;;;;;;20.94;80.22;156747.41;5079601;28;20456;-75
2021/08/22 00:02:47;;;;;;;8.97;8.10;;;;;;;20.96;80.15;156752.63;5058054;28;20446;-75
2021/08/22 00:05:34;;;;;;;9.10;8.30;;;;;;;20.99;80.24;156760.44;5076855;28;20580;-75
2021/08/22 00:08:19;;;;;;;8.27;7.57;;;;;;;21.00;80.04;156764.34;5076645;28;20503;-75
2021/08/22 00:11:05;;;;;;;9.87;8.87;;;;;;;21.03;79.73;156772.19;5060750;28;20464;-75
2021/08/22 00:13:50;;;;;;;11.03;8.13;;;;;;;21.05;82.57;156776.06;5076484;28;21015;-75
2021/08/22 00:16:35;;;;;;;8.83;8.03;;;;;;;21.11;80.57;156791.81;5076589;28;20406;-75
2021/08/22 00:19:21;;;;;;;9.30;8.13;;;;;;;21.18;80.94;156811.38;5076174;28;20840;-75
2021/08/22 00:22:08;;;;;;;10.27;9.17;;;;;;;21.27;84.88;156832.25;5078416;28;20456;-75
2021/08/22 00:24:54;;;;;;;12.73;9.50;;;;;;;21.23;87.44;156824.41;5033101;28;20455;-75
2021/08/22 00:27:40;;;;;;;14.70;9.97;;;;;;;21.16;92.91;156804.84;5032287;28;20469;-75
2021/08/22 00:30:15;;;;;;;8.67;7.87;;;;;;;20.82;93.28;156717.38;4997185;28;20468;-75
2021/08/22 00:33:08;;;;;;;7.30;6.47;;;;;;;20.51;92.49;156637.81;5011045;28;20449;-75
2021/08/22 00:35:54;;;;;;;6.07;5.47;;;;;;;20.29;92.92;156580.41;5013795;28;20444;-75
2021/08/22 00:38:40;;;;;;;5.43;4.90;;;;;;;20.11;94.05;156532.09;5013840;28;20416;-75
2021/08/22 00:41:26;;;;;;;5.63;4.70;;;;;;;19.67;95.87;156419.94;5013781;28;20436;-75
2021/08/22 00:44:11;;;;;;;4.00;3.47;;;;;;;19.59;95.94;156397.81;5013655;28;20954;-75
2021/08/22 00:46:57;;;;;;;8.10;4.00;;;;;;;19.37;96.12;156343.06;5012927;28;20472;-75
2021/08/22 00:49:43;;;;;;;3.80;2.80;;;;;;;19.32;95.86;156328.69;5012879;28;20448;-75
2021/08/22 00:52:18;;;;;;;5.53;3.33;;;;;;;19.26;96.41;156314.34;5013125;28;20444;-75
2021/08/22 00:55:06;;;;;;;4.20;2.70;;;;;;;19.20;96.28;156297.38;5013357;28;21014;-75
2021/08/22 00:57:51;;;;;;;3.23;2.63;;;;;;;19.02;96.63;156251.78;5012268;28;20776;-75
2021/08/22 01:00:38;;;;;;;3.47;2.40;;;;;;;19.01;96.92;156249.16;5013389;28;20930;-75
2021/08/22 01:03:28;;;;;;;3.40;3.10;;;;;;;18.92;96.92;156224.41;5078361;28;20461;-75
2021/08/22 01:06:19;;;;;;;5.10;3.47;;;;;;;18.96;99.26;156236.13;5060205;28;20523;-75
2021/08/22 01:09:09;;;;;;;3.70;3.13;;;;;;;18.95;98.23;156233.56;5074010;28;20429;-75
2021/08/22 01:11:57;;;;;;;3.70;3.20;;;;;;;18.91;96.09;156223.09;5074968;28;20565;-75
2021/08/22 01:14:46;;;;;;;3.77;2.90;;;;;;;18.91;96.62;156223.09;5075255;28;20445;-75
2021/08/22 01:17:34;;;;;;;3.77;3.20;;;;;;;18.90;94.79;156220.53;5075380;28;20418;-75
2021/08/22 01:20:27;;;;;;;4.07;3.00;;;;;;;18.83;95.98;156202.25;5074971;28;20437;-75
2021/08/22 01:23:13;;;;;;;4.30;3.27;;;;;;;18.79;95.31;156191.84;5074700;28;20820;-75
2021/08/22 01:25:59;;;;;;;4.97;3.60;;;;;;;18.71;95.21;156171.00;5075317;28;20932;-75
2021/08/22 01:28:47;;;;;;;5.43;3.53;;;;;;;18.68;95.36;156163.19;5075180;28;20425;-75
2021/08/22 01:31:38;;;;;;;3.93;3.13;;;;;;;18.65;95.45;156156.66;5074422;28;20461;-74
2021/08/22 01:34:33;;;;;;;4.70;4.10;;;;;;;18.61;95.69;156144.97;5069422;28;20535;-75
2021/08/22 01:37:19;;;;;;;5.40;4.27;;;;;;;18.62;95.94;156147.53;5074926;28;20417;-75
2021/08/22 01:40:05;;;;;;;4.20;3.80;;;;;;;18.64;96.00;156152.75;5074928;28;20450;-75
2021/08/22 01:42:51;;;;;;;4.63;3.77;;;;;;;18.82;94.21;156199.69;5077581;28;20456;-75
2021/08/22 01:45:36;;;;;;;3.80;3.37;;;;;;;18.73;93.23;156176.22;5074573;28;20507;-74
2021/08/22 01:48:22;;;;;;;5.10;4.00;;;;;;;18.46;96.16;156107.09;5074689;28;20421;-75
2021/08/22 01:51:10;;;;;;;4.10;3.50;;;;;;;18.33;97.71;156073.25;5077334;28;20488;-75
2021/08/22 01:53:57;;;;;;;3.37;3.07;;;;;;;18.23;100.00;156048.53;5074610;28;20422;-75
2021/08/22 01:56:43;;;;;;;3.80;3.00;;;;;;;18.11;100.00;156017.25;5074291;28;20438;-75
2021/08/22 01:59:29;;;;;;;5.80;3.53;;;;;;;18.13;100.00;156021.19;5074576;28;20465;-75
2021/08/22 02:02:14;;;;;;;2.93;2.63;;;;;;;18.12;100.00;156019.88;5074112;28;20552;-75
2021/08/22 02:05:01;;;;;;;3.73;3.00;;;;;;;18.25;99.64;156053.72;5074310;28;20587;-75
2021/08/22 02:07:48;;;;;;;4.00;3.47;;;;;;;18.33;99.90;156071.94;5074292;28;20765;-75
2021/08/22 02:10:35;;;;;;;4.53;2.80;;;;;;;18.13;100.00;156022.50;5074260;28;20461;-75
2021/08/22 02:13:25;;;;;;;3.33;2.80;;;;;;;18.02;100.00;155993.81;5077249;28;20453;-75
2021/08/22 02:16:14;;;;;;;3.50;3.00;;;;;;;17.97;100.00;155980.81;5074018;28;21015;-75
2021/08/22 02:19:00;;;;;;;4.67;3.17;;;;;;;17.90;100.00;155961.25;5072829;28;20528;-75
2021/08/22 02:21:46;;;;;;;3.93;2.77;;;;;;;17.90;100.00;155962.56;5058965;28;20472;-75
2021/08/22 02:24:33;;;;;;;3.93;2.80;;;;;;;17.83;100.00;155944.34;5073651;28;20465;-75
2021/08/22 02:27:19;;;;;;;3.83;2.90;;;;;;;17.91;100.00;155963.88;5074116;28;20544;-75
2021/08/22 02:30:06;;;;;;;3.20;2.90;;;;;;;17.87;100.00;155953.47;5076565;28;20611;-75
2021/08/22 02:32:51;;;;;;;4.07;3.40;;;;;;;17.87;100.00;155953.47;5073048;28;20503;-75
2021/08/22 02:35:37;;;;;;;4.50;3.23;;;;;;;17.91;100.00;155965.16;5072551;28;20981;-75
2021/08/22 02:38:22;;;;;;;4.53;3.27;;;;;;;17.93;100.00;155970.38;5072916;28;21034;-75
2021/08/22 02:41:09;;;;;;;3.50;3.10;;;;;;;17.93;100.00;155970.38;5073206;28;20441;-75
2021/08/22 02:43:54;;;;;;;4.27;3.50;;;;;;;17.96;100.00;155978.19;5073613;28;20433;-75
2021/08/22 02:46:40;;;;;;;4.23;3.37;;;;;;;17.92;100.00;155967.78;5073249;28;20888;-75
2021/08/22 02:49:25;;;;;;;3.90;3.23;;;;;;;17.90;100.00;155962.56;5073698;28;20425;-75
2021/08/22 02:52:11;;;;;;;4.80;4.20;;;;;;;17.90;100.00;155962.56;5073405;28;20477;-75
2021/08/22 02:54:56;;;;;;;3.40;3.10;;;;;;;17.89;100.00;155959.97;5073660;28;20438;-75
2021/08/22 02:57:44;;;;;;;4.20;3.60;;;;;;;17.91;100.00;155963.88;5073551;28;20422;-75
2021/08/22 03:00:29;;;;;;;3.30;3.00;;;;;;;17.94;100.00;155973.00;5076282;28;20554;-74
2021/08/22 03:03:04;;;;;;;4.30;3.20;;;;;;;18.06;100.00;156002.91;5055034;28;20425;-74
2021/08/22 03:05:50;;;;;;;4.60;3.47;;;;;;;17.94;100.00;155973.00;5072991;28;20523;-74
2021/08/22 03:08:35;;;;;;;4.20;3.30;;;;;;;17.90;100.00;155962.56;5058465;28;20425;-75
2021/08/22 03:11:21;;;;;;;3.70;3.30;;;;;;;17.86;100.00;155952.16;5077831;28;20473;-75
2021/08/22 03:14:11;;;;;;;4.30;3.90;;;;;;;17.81;100.00;155939.16;5077632;28;20495;-75
2021/08/22 03:16:56;;;;;;;4.17;3.73;;;;;;;17.80;100.00;155936.53;5080408;28;20453;-75
2021/08/22 03:19:41;;;;;;;4.23;3.70;;;;;;;17.84;100.00;155946.97;5077299;28;20445;-75
2021/08/22 03:22:27;;;;;;;4.17;3.77;;;;;;;17.78;100.00;155930.00;5076228;28;20488;-75
2021/08/22 03:25:13;;;;;;;4.37;3.97;;;;;;;17.82;100.00;155941.72;5077574;28;20441;-75
2021/08/22 03:27:58;;;;;;;4.17;3.77;;;;;;;17.72;100.00;155914.38;5077461;28;20417;-75
2021/08/22 03:30:45;;;;;;;5.27;4.77;;;;;;;17.74;100.00;155920.88;5077369;28;20520;-75
2021/08/22 03:33:30;;;;;;;5.00;4.50;;;;;;;17.77;100.00;155928.69;5077404;28;20413;-75
2021/08/22 03:36:18;;;;;;;4.97;4.50;;;;;;;17.76;100.00;155926.13;5077466;28;20449;-75
2021/08/22 03:39:03;;;;;;;4.97;4.20;;;;;;;17.78;100.00;155931.31;5076153;28;20457;-75
2021/08/22 03:41:48;;;;;;;4.67;4.23;;;;;;;17.78;100.00;155931.31;5077095;28;20930;-75
2021/08/22 03:44:34;;;;;;;5.30;4.67;;;;;;;17.76;100.00;155926.13;5077169;28;20433;-75
2021/08/22 03:47:20;;;;;;;5.00;3.93;;;;;;;17.79;100.00;155933.91;5076878;28;20774;-75
2021/08/22 03:50:07;;;;;;;5.60;5.10;;;;;;;17.80;100.00;155936.53;5076657;28;20440;-75
2021/08/22 03:52:53;;;;;;;5.60;5.00;;;;;;;17.71;100.00;155913.13;5075812;28;20424;-75
2021/08/22 03:55:38;;;;;;;5.50;4.90;;;;;;;17.73;100.00;155918.31;5077069;28;20441;-75
2021/08/22 03:58:24;;;;;;;5.27;4.87;;;;;;;17.74;100.00;155920.88;5076920;28;20408;-75
2021/08/22 04:01:09;;;;;;;4.90;4.20;;;;;;;17.73;100.00;155918.31;5076373;28;20440;-75
2021/08/22 04:04:09;;;;;;;5.67;4.73;;;;;;;17.73;100.00;155917.00;5079456;28;20962;-75
2021/08/22 04:06:59;;;;;;;4.70;4.20;;;;;;;17.77;100.00;155928.69;5061574;28;20537;-75
2021/08/22 04:09:45;;;;;;;5.87;4.47;;;;;;;17.75;100.00;155923.50;5061519;28;20974;-75
2021/08/22 04:12:30;;;;;;;5.73;4.77;;;;;;;17.73;100.00;155918.31;5076385;28;20564;-75
2021/08/22 04:15:16;;;;;;;7.00;5.47;;;;;;;17.76;100.00;155926.13;5076501;28;20442;-75
2021/08/22 04:18:01;;;;;;;4.83;4.27;;;;;;;17.76;100.00;155926.13;5076316;28;20476;-75
2021/08/22 04:20:48;;;;;;;5.10;4.00;;;;;;;17.79;100.00;155932.63;5076478;28;20445;-75
2021/08/22 04:23:33;;;;;;;5.83;4.60;;;;;;;17.80;100.00;155935.22;5075965;28;20554;-74
2021/08/22 04:26:19;;;;;;;6.20;4.20;;;;;;;17.82;100.00;155941.72;5075856;28;20434;-75
2021/08/22 04:29:04;;;;;;;6.00;4.60;;;;;;;17.84;100.00;155946.97;5078973;28;20539;-75
2021/08/22 04:31:50;;;;;;;5.20;4.70;;;;;;;17.80;100.00;155936.53;5075750;28;20808;-75
2021/08/22 04:34:35;;;;;;;4.77;4.30;;;;;;;17.81;100.00;155939.16;5076288;28;20563;-75
2021/08/22 04:37:21;;;;;;;6.53;5.47;;;;;;;17.81;100.00;155939.16;5078941;28;20473;-74
2021/08/22 04:40:08;;;;;;;5.63;4.70;;;;;;;17.84;100.00;155946.97;5077020;28;20543;-75
2021/08/22 04:42:44;;;;;;;5.37;4.87;;;;;;;17.85;100.00;155948.22;5079436;28;20442;-75
2021/08/22 04:45:29;;;;;;;7.00;5.20;;;;;;;17.83;100.00;155944.34;5075732;28;20441;-75
2021/08/22 04:48:14;;;;;;;6.47;5.87;;;;;;;17.85;100.00;155949.53;5062906;28;20456;-75
2021/08/22 04:51:00;;;;;;;5.50;4.87;;;;;;;17.88;100.00;155956.03;5075867;28;20449;-75
2021/08/22 04:53:46;;;;;;;8.20;5.07;;;;;;;17.90;100.00;155961.25;5074488;28;20549;-75
2021/08/22 04:56:32;;;;;;;9.30;7.00;;;;;;;17.87;100.00;155954.72;5076048;28;20436;-75
2021/08/22 04:59:17;;;;;;;8.07;6.23;;;;;;;17.89;100.00;155959.97;5077406;28;20469;-75
2021/08/22 05:01:53;;;;;;;7.53;6.80;;;;;;;17.91;100.00;155965.16;5056175;28;20481;-75
2021/08/22 05:04:29;;;;;;;8.23;6.67;;;;;;;17.90;100.00;155962.56;5074687;28;20450;-75
2021/08/22 05:07:14;;;;;;;6.63;5.57;;;;;;;17.91;100.00;155965.16;5075635;28;20438;-75
2021/08/22 05:10:01;;;;;;;8.23;5.37;;;;;;;17.92;100.00;155967.78;5075598;28;20576;-75
2021/08/22 05:12:46;;;;;;;5.73;5.23;;;;;;;17.98;100.00;155983.38;5075019;28;20458;-75
2021/08/22 05:15:32;;;;;;;6.87;5.73;;;;;;;18.00;100.00;155988.59;5075611;28;20989;-75
2021/08/22 05:18:18;;;;;;;5.53;4.73;;;;;;;18.02;100.00;155993.81;5075394;28;20971;-75
2021/08/22 05:21:03;;;;;;;5.80;5.20;;;;;;;18.01;100.00;155991.22;5074858;28;20541;-75
2021/08/22 05:23:49;;;;;;;6.93;5.40;;;;;;;18.00;100.00;155988.59;5074867;28;20456;-74
2021/08/22 05:26:35;;;;;;;8.43;7.73;;;;;;;17.98;100.00;155982.06;5078058;28;20468;-75
2021/08/22 05:29:23;;;;;;;6.10;5.50;;;;;;;18.01;100.00;155991.22;5012480;28;20480;-74
2021/08/22 05:32:08;;;;;;;6.63;5.67;;;;;;;18.02;100.00;155993.81;5012081;28;21021;-75
2021/08/22 05:34:53;;;;;;;6.20;5.60;;;;;;;18.05;100.00;156000.34;5012767;28;20965;-75
2021/08/22 05:37:39;;;;;;;6.07;5.57;;;;;;;18.06;100.00;156004.22;5012994;28;20420;-75
2021/08/22 05:40:24;;;;;;;6.07;5.47;;;;;;;18.05;100.00;156001.66;5012562;28;20444;-75
2021/08/22 05:43:11;;;;;;;7.90;5.47;;;;;;;18.06;100.00;156004.22;4996780;28;20535;-75
2021/08/22 05:45:56;;;;;;;6.00;5.00;;;;;;;18.10;100.00;156014.66;4993117;28;20596;-75
2021/08/22 05:48:42;;;;;;;12.70;5.77;;;;;;;18.12;100.00;156019.88;4991657;28;20417;-75
2021/08/22 05:51:27;;;;;;;7.63;5.23;;;;;;;18.14;100.00;156025.06;4992897;28;20569;-75
2021/08/22 05:54:12;;;;;;;6.10;5.50;;;;;;;18.15;100.00;156027.69;4992785;28;20453;-75
2021/08/22 05:56:57;;;;;;;6.60;5.60;;;;;;;18.15;100.00;156027.69;4992863;28;20889;-75
2021/08/22 05:59:44;;;;;;;5.93;5.40;;;;;;;18.19;100.00;156036.75;4992727;28;20512;-75
2021/08/22 06:02:29;;;;;;;7.83;6.00;;;;;;;18.22;100.00;156045.91;4992788;28;20420;-75
2021/08/22 06:05:14;;;;;;;5.43;4.93;;;;;;;18.27;100.00;156057.59;4992687;28;20823;-75
2021/08/22 06:07:59;;;;;;;6.83;5.30;;;;;;;18.29;100.00;156061.53;5077228;28;20549;-75
2021/08/22 06:10:45;;;;;;;7.43;5.40;;;;;;;18.37;100.00;156082.38;5074543;28;20523;-75
2021/08/22 06:13:31;;;;;;;9.40;6.03;;;;;;;18.46;100.00;156105.81;5072335;28;20473;-75
2021/08/22 06:16:07;;;;;;;6.80;5.97;;;;;;;18.49;100.00;156113.66;5058739;28;20565;-75
2021/08/22 06:18:53;;;;;;;5.73;5.13;;;;;;;18.57;100.00;156134.53;5074141;28;20417;-75
2021/08/22 06:21:38;;;;;;;5.90;4.87;;;;;;;18.64;100.00;156152.75;5075870;28;20463;-75
2021/08/22 06:24:25;;;;;;;5.97;5.37;;;;;;;18.69;100.00;156165.81;5011250;28;20488;-75
2021/08/22 06:27:10;;;;;;;5.47;4.97;;;;;;;18.70;100.00;156169.69;5011894;28;21010;-75
2021/08/22 06:29:56;;;;;;;6.17;5.60;;;;;;;18.74;100.00;156178.84;5011672;28;20511;-75
2021/08/22 06:32:50;;;;;;;5.93;4.97;;;;;;;18.74;100.00;156178.84;5010388;28;20476;-75
2021/08/22 06:35:35;;;;;;;5.93;5.30;;;;;;;18.76;100.00;156185.34;5011556;28;20448;-75
2021/08/22 06:38:20;;;;;;;5.57;4.50;;;;;;;18.86;100.00;156210.09;5011784;28;20985;-75
2021/08/22 06:41:06;;;;;;;6.10;5.60;;;;;;;18.93;100.00;156227.03;5016868;28;21204;-75
2021/08/22 06:43:52;;;;;;;6.57;5.10;;;;;;;18.97;100.00;156237.44;5072891;28;20966;-75
2021/08/22 06:46:38;;;;;;;7.50;6.27;;;;;;;18.99;100.00;156242.66;5073019;28;20438;-75
2021/08/22 06:49:25;;;;;;;5.70;5.20;;;;;;;19.02;100.00;156250.47;5073268;28;20764;-75
2021/08/22 06:52:12;;;;;;;6.20;5.40;;;;;;;18.96;100.00;156236.13;5073546;28;20457;-75
2021/08/22 06:54:57;;;;;;;5.73;5.13;;;;;;;18.92;100.00;156225.72;5073624;28;20441;-75
2021/08/22 06:57:43;;;;;;;6.20;5.37;;;;;;;18.93;100.00;156227.03;5073817;28;20422;-75
2021/08/22 07:00:28;;;;;;;6.17;5.57;;;;;;;18.95;100.00;156233.56;5073845;28;20583;-75
2021/08/22 07:03:14;;;;;;;6.53;5.93;;;;;;;19.03;100.00;156253.09;5073691;28;20946;-75
2021/08/22 07:06:00;;;;;;;5.90;5.27;;;;;;;19.09;100.00;156268.75;5073268;28;20437;-75
2021/08/22 07:08:45;;;;;;;5.17;4.60;;;;;;;19.11;100.00;156273.94;5075964;28;20543;-75
2021/08/22 07:11:31;;;;;;;6.87;5.60;;;;;;;19.15;100.00;156285.66;5073074;28;20437;-75
2021/08/22 07:14:17;;;;;;;8.67;5.27;;;;;;;19.19;100.00;156296.13;5072023;28;20826;-75
2021/08/22 07:17:02;;;;;;;5.83;5.23;;;;;;;19.21;100.00;156301.31;5073496;28;20496;-75
2021/08/22 07:19:48;;;;;;;6.10;5.30;;;;;;;19.19;100.00;156296.13;5073435;28;20444;-75
2021/08/22 07:22:35;;;;;;;5.47;4.87;;;;;;;19.24;100.00;156307.84;5073507;28;20410;-75
2021/08/22 07:25:21;;;;;;;7.00;5.10;;;;;;;19.29;100.00;156322.16;5073554;28;20437;-75
2021/08/22 07:28:06;;;;;;;5.97;5.10;;;;;;;19.36;100.00;156339.09;5073097;28;20484;-75
2021/08/22 07:30:51;;;;;;;6.60;5.50;;;;;;;19.41;100.00;156352.16;5073287;28;20433;-75
2021/08/22 07:33:37;;;;;;;6.50;5.43;;;;;;;19.47;100.00;156366.50;5073058;28;20536;-75
2021/08/22 07:36:22;;;;;;;6.53;4.97;;;;;;;19.48;100.00;156370.44;5073485;28;20433;-75
2021/08/22 07:38:59;;;;;;;6.17;5.57;;;;;;;19.46;100.00;156363.94;5066493;28;20449;-75
2021/08/22 07:41:44;;;;;;;5.97;5.37;;;;;;;19.46;100.00;156363.94;5073278;28;20421;-75
2021/08/22 07:44:30;;;;;;;5.77;5.27;;;;;;;19.49;100.00;156373.03;5072045;28;20446;-75
2021/08/22 07:47:15;;;;;;;5.57;5.07;;;;;;;19.54;100.00;156384.78;5073293;28;20414;-75
2021/08/22 07:50:00;;;;;;;6.00;5.50;;;;;;;19.61;100.00;156403.03;5073115;28;20488;-75
2021/08/22 07:52:46;;;;;;;5.60;4.87;;;;;;;19.67;100.00;156418.69;5073035;28;20473;-75
2021/08/22 07:55:35;;;;;;;5.20;4.70;;;;;;;19.75;100.00;156440.81;5075549;28;20441;-74
2021/08/22 07:58:20;;;;;;;5.10;4.60;;;;;;;19.78;100.00;156447.31;5076936;28;20422;-75
2021/08/22 08:01:05;;;;;;;5.30;4.80;;;;;;;19.85;100.00;156465.63;5079932;28;20476;-75
2021/08/22 08:03:51;;;;;;;6.17;5.57;;;;;;;19.89;100.00;156476.03;5076799;28;20418;-75
2021/08/22 08:06:36;;;;;;;5.10;4.60;;;;;;;19.89;99.44;156476.03;5075618;28;20417;-75
2021/08/22 08:09:22;;;;;;;5.00;4.60;;;;;;;19.92;100.00;156483.84;5076478;28;20467;-75
2021/08/22 08:12:09;;;;;;;6.20;5.10;;;;;;;20.00;100.00;156504.72;5076069;28;20461;-74
2021/08/22 08:14:54;;;;;;;5.77;4.43;;;;;;;20.09;100.00;156528.22;5078842;28;20471;-74
2021/08/22 08:17:39;;;;;;;4.93;4.37;;;;;;;20.18;99.66;156551.66;5079337;28;20598;-75
2021/08/22 08:20:26;;;;;;;5.33;4.60;;;;;;;20.22;99.77;156562.13;5027817;28;20461;-75
2021/08/22 08:23:11;;;;;;;5.80;5.20;;;;;;;20.27;99.60;156573.88;5075840;28;20807;-75
2021/08/22 08:25:57;;;;;;;5.27;4.77;;;;;;;20.35;99.61;156596.06;5079036;28;20461;-75
2021/08/22 08:28:44;;;;;;;6.30;4.30;;;;;;;20.43;100.00;156616.94;5076256;28;20417;-75
2021/08/22 08:31:29;;;;;;;5.57;4.77;;;;;;;20.53;99.52;156643.03;5074977;28;20508;-75
2021/08/22 08:34:15;;;;;;;5.87;5.37;;;;;;;20.64;99.37;156670.41;5076234;28;20909;-75
2021/08/22 08:37:00;;;;;;;7.27;6.23;;;;;;;20.69;99.33;156682.16;5076056;28;20415;-75
2021/08/22 08:39:45;;;;;;;5.30;4.70;;;;;;;20.77;97.23;156703.03;5074913;28;20438;-75
2021/08/22 08:42:32;;;;;;;5.60;5.03;;;;;;;20.83;96.42;156720.00;5078395;28;20465;-75
2021/08/22 08:45:19;;;;;;;5.10;4.50;;;;;;;20.93;97.84;156744.78;5075292;28;20442;-75
2021/08/22 08:48:05;;;;;;;6.13;5.20;;;;;;;21.08;98.64;156785.28;5074356;28;20433;-75
2021/08/22 08:51:07;;;;;;;5.80;5.20;;;;;;;21.07;94.68;156781.38;5075978;28;20594;-75
2021/08/22 08:53:53;;;;;;;6.20;5.60;;;;;;;21.08;93.51;156783.97;5075525;28;20473;-75
2021/08/22 08:56:39;;;;;;;5.57;4.97;;;;;;;21.11;94.70;156791.81;5060372;28;20429;-75
2021/08/22 08:59:25;;;;;;;5.27;4.77;;;;;;;21.05;94.85;156776.06;5077997;28;20588;-75
2021/08/22 09:02:11;;;;;;;5.40;4.70;;;;;;;21.09;94.33;156786.59;5075512;28;20774;-75
2021/08/22 09:05:11;;;;;;;5.70;5.17;;;;;;;21.15;93.41;156802.25;5074705;28;20437;-75
2021/08/22 09:08:38;;;;;;;6.43;5.67;;;;;;;21.17;93.91;156807.47;5074557;28;20762;-75
2021/08/22 09:12:09;;;;;;;5.10;4.60;;;;;;;21.22;94.04;156820.53;5066424;28;20464;-75
2021/08/22 09:15:32;;;;;;;6.53;5.93;;;;;;;21.19;92.68;156812.69;5075399;28;20437;-75
2021/08/22 09:18:56;;;;;;;5.57;5.07;;;;;;;21.20;92.48;156816.63;5074258;28;20772;-75
2021/08/22 09:22:19;;;;;;;5.90;4.77;;;;;;;21.23;90.81;156824.41;5072500;28;20450;-75
2021/08/22 09:25:52;;;;;;;5.67;5.10;;;;;;;21.39;91.85;156864.91;5074599;28;20813;-75
2021/08/22 09:29:14;;;;;;;5.63;5.13;;;;;;;21.47;90.16;156884.50;5075285;28;20421;-75
2021/08/22 09:32:47;;;;;;;6.27;4.70;;;;;;;21.65;91.29;156932.78;5056847;28;20452;-75
2021/08/22 09:36:18;;;;;;;5.73;5.13;;;;;;;21.81;90.21;156974.56;5077700;28;20468;-75
2021/08/22 09:39:41;;;;;;;5.00;4.50;;;;;;;21.96;89.20;157012.47;5041591;28;20441;-75
2021/08/22 09:43:11;;;;;;;5.27;4.77;;;;;;;21.91;85.32;156999.41;5074945;28;20916;-75
2021/08/22 09:46:34;;;;;;;6.30;4.40;;;;;;;21.94;86.37;157005.94;5072903;28;20442;-74
2021/08/22 09:49:53;;;;;;;5.40;4.93;;;;;;;21.82;87.22;156975.84;5074778;28;20440;-75
2021/08/22 09:53:16;;;;;;;5.97;5.07;;;;;;;21.72;86.50;156949.75;5040861;28;20504;-75
2021/08/22 09:56:39;;;;;;;7.10;6.50;;;;;;;21.79;84.89;156969.31;5073496;28;20468;-75
2021/08/22 10:00:04;;;;;;;7.47;6.13;;;;;;;21.85;85.63;156983.69;5074552;28;20766;-75
2021/08/22 10:03:31;;;;;;;5.83;5.33;;;;;;;21.94;85.88;157005.94;5074250;28;20410;-75
2021/08/22 10:06:43;;;;;;;5.50;5.00;;;;;;;22.04;84.99;157032.03;5074611;28;20437;-75
2021/08/22 10:09:30;;;;;;;6.53;5.83;;;;;;;22.06;85.45;157038.56;5074430;28;20527;-75
2021/08/22 10:12:16;;;;;;;6.50;5.10;;;;;;;22.04;85.54;157032.03;5074237;28;20414;-75
2021/08/22 10:15:02;;;;;;;6.73;5.70;;;;;;;22.09;82.76;157045.09;5074329;28;20781;-75
2021/08/22 10:17:48;;;;;;;5.30;4.73;;;;;;;22.11;83.69;157050.31;5076219;28;20913;-75
2021/08/22 10:20:40;;;;;;;5.70;5.20;;;;;;;22.05;83.65;157036.00;5074189;28;20442;-75
2021/08/22 10:23:51;;;;;;;5.90;5.40;;;;;;;22.06;82.76;157037.25;5073842;28;20453;-75
2021/08/22 10:26:51;;;;;;;6.80;6.10;;;;;;;21.95;84.01;157008.56;5073833;28;20880;-74
2021/08/22 10:30:07;;;;;;;9.47;8.57;;;;;;;21.92;85.26;157000.72;5074159;28;20445;-75
2021/08/22 10:33:19;;;;;;;28.60;23.47;;;;;;;21.85;88.29;156985.00;5073685;28;20812;-75
2021/08/22 10:36:30;;;;;;;10.17;9.17;;;;;;;21.85;89.70;156985.00;5077503;28;20460;-75
2021/08/22 10:39:30;;;;;;;7.10;6.50;;;;;;;21.83;91.66;156979.78;5073854;28;20413;-75
2021/08/22 10:42:18;;;;;;;5.90;5.30;;;;;;;21.80;91.92;156971.94;5073242;28;20888;-75
2021/08/22 10:45:03;;;;;;;5.97;5.37;;;;;;;21.71;90.70;156947.16;5073573;28;20555;-75
2021/08/22 10:47:49;;;;;;;6.00;5.40;;;;;;;21.73;90.02;156953.69;5073774;28;20422;-75
2021/08/22 10:51:12;;;;;;;5.87;5.27;;;;;;;21.75;91.13;156958.91;5058590;28;20792;-75
2021/08/22 10:54:16;;;;;;;6.00;5.40;;;;;;;21.78;91.12;156966.75;5073638;28;20903;-75
2021/08/22 10:57:01;;;;;;;5.83;5.20;;;;;;;21.79;90.51;156969.31;5074377;28;20429;-75
2021/08/22 11:00:12;;;;;;;6.90;5.10;;;;;;;21.80;91.93;156971.94;5074375;28;20516;-75
2021/08/22 11:02:58;;;;;;;6.20;5.60;;;;;;;21.79;93.38;156969.31;5073599;28;20468;-75
2021/08/22 11:05:45;;;;;;;5.70;5.17;;;;;;;21.79;91.53;156968.00;5074930;28;20824;-75
2021/08/22 11:08:22;;;;;;;6.03;5.43;;;;;;;21.65;91.23;156932.78;5073409;28;20441;-75
2021/08/22 11:11:08;;;;;;;6.07;5.47;;;;;;;21.50;92.42;156892.34;5073687;28;20532;-75
2021/08/22 11:13:54;;;;;;;6.90;6.20;;;;;;;21.18;92.99;156811.38;5073458;28;20453;-75
2021/08/22 11:16:45;;;;;;;6.73;5.50;;;;;;;21.16;97.50;156804.84;5076514;28;20460;-75
2021/08/22 11:19:31;;;;;;;7.60;6.90;;;;;;;21.13;99.08;156797.00;5073623;28;20434;-75
2021/08/22 11:22:28;;;;;;;7.70;7.00;;;;;;;21.00;100.00;156763.03;5072627;28;20433;-75
2021/08/22 11:25:14;;;;;;;7.03;6.33;;;;;;;20.88;99.55;156733.06;5073380;28;20453;-75
2021/08/22 11:28:07;;;;;;;6.13;5.53;;;;;;;20.51;90.68;156637.81;5073547;28;20413;-75
2021/08/22 11:30:53;;;;;;;4.73;4.23;;;;;;;20.36;88.38;156598.66;5076249;28;20575;-75
2021/08/22 11:33:38;;;;;;;4.00;3.60;;;;;;;20.35;92.02;156596.06;5077287;28;21094;-75
2021/08/22 11:36:27;;;;;;;2.97;2.67;;;;;;;20.37;90.43;156601.28;5077588;28;20463;-75
2021/08/22 11:39:22;;;;;;;2.87;2.40;;;;;;;20.44;89.96;156618.22;5074637;28;20496;-75
2021/08/22 11:42:07;;;;;;;2.10;1.90;;;;;;;20.23;89.60;156563.38;5062038;28;20422;-75
2021/08/22 11:45:07;;;;;;;2.07;1.80;;;;;;;20.10;87.66;156529.47;5076118;28;20448;-75
2021/08/22 11:47:53;;;;;;;1.80;1.50;;;;;;;19.91;85.40;156482.53;5076004;28;20499;-75
2021/08/22 11:50:38;;;;;;;1.90;1.40;;;;;;;19.73;84.80;156434.28;5077259;28;20430;-75
2021/08/22 11:53:29;;;;;;;2.20;1.83;;;;;;;19.62;85.60;156405.66;5076946;28;20473;-75
2021/08/22 11:56:23;;;;;;;2.40;2.17;;;;;;;19.59;91.14;156397.81;5077151;28;20456;-75
2021/08/22 11:59:23;;;;;;;2.23;1.80;;;;;;;19.53;88.86;156382.16;5079603;28;20460;-75
2021/08/22 12:02:19;;;;;;;2.57;2.13;;;;;;;19.51;92.40;156376.97;5076778;28;20410;-75
2021/08/22 12:05:15;;;;;;;3.00;2.60;;;;;;;19.32;91.31;156330.00;5075760;28;20960;-74
2021/08/22 12:08:08;;;;;;;2.70;2.30;;;;;;;19.28;93.83;156319.53;5076260;28;20422;-75
2021/08/22 12:11:06;;;;;;;2.30;2.10;;;;;;;19.38;96.61;156345.66;5079592;28;21018;-75
2021/08/22 12:13:44;;;;;;;2.97;2.20;;;;;;;19.28;95.69;156319.53;5079424;28;20839;-75
2021/08/22 12:16:31;;;;;;;2.90;2.30;;;;;;;19.25;95.80;156311.72;5076149;28;20441;-75
2021/08/22 12:19:17;;;;;;;3.33;2.20;;;;;;;19.26;97.65;156314.34;5076510;28;21039;-75
2021/08/22 12:22:10;;;;;;;2.90;2.10;;;;;;;19.23;98.94;156306.53;5076339;28;20422;-74
2021/08/22 12:24:56;;;;;;;2.70;2.37;;;;;;;19.24;99.60;156309.13;5075882;28;20472;-75
2021/08/22 12:27:41;;;;;;;2.43;2.23;;;;;;;19.21;100.00;156300.00;5076384;28;20434;-75
2021/08/22 12:30:31;;;;;;;2.30;2.10;;;;;;;19.20;99.96;156298.69;5076411;28;20449;-75
2021/08/22 12:33:36;;;;;;;2.90;2.30;;;;;;;19.13;100.00;156280.47;5076166;28;20454;-75
2021/08/22 12:36:32;;;;;;;2.77;2.50;;;;;;;19.06;96.96;156260.91;5076440;28;20490;-75
2021/08/22 12:39:18;;;;;;;2.23;1.77;;;;;;;18.94;100.00;156230.94;5076152;28;20452;-75
2021/08/22 12:42:04;;;;;;;2.60;1.83;;;;;;;18.89;98.61;156217.91;5074644;28;20413;-75
2021/08/22 12:44:49;;;;;;;3.27;2.30;;;;;;;18.97;100.00;156238.75;5076116;28;20924;-74
2021/08/22 12:47:36;;;;;;;3.37;1.90;;;;;;;18.76;99.89;156185.34;5076073;28;20917;-75
2021/08/22 12:50:21;;;;;;;2.20;2.00;;;;;;;18.84;100.00;156206.19;5075811;28;20812;-75
2021/08/22 12:53:06;;;;;;;1.80;1.60;;;;;;;18.78;100.00;156189.22;5075722;28;20422;-75
2021/08/22 12:55:52;;;;;;;1.87;1.33;;;;;;;18.77;100.00;156187.91;5075962;28;20507;-74
2021/08/22 12:58:37;;;;;;;2.53;1.87;;;;;;;18.80;100.00;156194.44;5075879;28;20433;-75
2021/08/22 13:01:24;;;;;;;4.00;1.90;;;;;;;18.82;100.00;156200.94;5075317;28;20483;-75
2021/08/22 13:04:12;;;;;;;2.10;1.90;;;;;;;18.83;100.00;156203.56;5075709;28;20422;-75